Time;durP1;ratioP1;P1;durP2;ratioP2;P2;SDS_P1;SDS_P2;PMS_P1;PMS_P2;Temp;Humidity;BMP_temperature;BMP_pressure;BME280_temperature;BME280_humidity;BME280_pressure;Samples;Min_cycle;Max_cycle;Signal;HPM_P1;HPM_P2
2023/05/27 00:01:31;;;;;;;9.37;4.27;;;;;;;20.15;58.70;100954.34;5011265;28;20188;-63
2023/05/27 00:03:56;;;;;;;11.33;4.40;;;;;;;20.15;58.34;100957.22;5017689;28;20448;-62
2023/05/27 00:06:22;;;;;;;12.43;4.47;;;;;;;20.15;58.71;100951.50;5028845;28;20209;-63
2023/05/27 00:08:47;;;;;;;10.23;4.63;;;;;;;20.16;58.44;100958.06;5029046;28;20196;-62
2023/05/27 00:11:13;;;;;;;12.43;5.10;;;;;;;20.15;58.32;100957.22;5014056;28;20237;-63
2023/05/27 00:13:38;;;;;;;8.23;4.13;;;;;;;20.15;58.41;100954.34;5009181;28;20641;-62
2023/05/27 00:16:04;;;;;;;9.50;4.40;;;;;;;20.14;58.35;100955.56;5012002;28;20520;-62
2023/05/27 00:18:32;;;;;;;9.73;4.00;;;;;;;20.15;58.31;100959.25;5029581;28;20491;-62
2023/05/27 00:20:58;;;;;;;8.20;4.10;;;;;;;20.14;58.12;100960.47;5012773;28;20272;-63
2023/05/27 00:23:24;;;;;;;10.10;4.23;;;;;;;20.13;58.00;100942.44;5017713;28;20569;-62
2023/05/27 00:25:49;;;;;;;12.20;4.00;;;;;;;20.12;58.14;100952.22;5025539;28;20227;-63
2023/05/27 00:28:15;;;;;;;11.53;4.47;;;;;;;20.12;58.18;100952.22;5009948;28;20177;-63
2023/05/27 00:30:41;;;;;;;12.20;4.23;;;;;;;20.12;58.17;100952.22;5008630;28;20181;-62
2023/05/27 00:33:06;;;;;;;10.00;4.20;;;;;;;20.13;58.11;100953.06;5021393;28;20675;-63
2023/05/27 00:35:31;;;;;;;10.23;3.93;;;;;;;20.12;58.28;100945.69;5028881;28;20961;-63
2023/05/27 00:37:57;;;;;;;12.00;4.13;;;;;;;20.11;57.96;100950.56;5012420;28;20180;-62
2023/05/27 00:40:23;;;;;;;10.70;3.77;;;;;;;20.11;57.79;100941.16;5008386;28;20211;-63
2023/05/27 00:42:48;;;;;;;12.20;4.83;;;;;;;20.10;57.58;100943.19;5026968;28;20179;-63
2023/05/27 00:45:14;;;;;;;10.33;4.20;;;;;;;20.11;57.80;100947.72;5014631;28;20209;-62
2023/05/27 00:47:39;;;;;;;12.67;4.70;;;;;;;20.10;57.82;100946.06;5018616;28;20215;-63
2023/05/27 00:50:07;;;;;;;10.97;4.73;;;;;;;20.10;57.26;100936.63;5029687;28;20606;-62
2023/05/27 00:52:33;;;;;;;13.40;4.63;;;;;;;20.09;57.74;100941.53;5028608;28;20188;-62
2023/05/27 00:54:59;;;;;;;9.27;3.90;;;;;;;20.09;57.71;100934.97;5027260;28;20481;-62
2023/05/27 00:57:24;;;;;;;10.47;4.43;;;;;;;20.09;57.69;100930.06;5013203;28;20185;-63
2023/05/27 00:59:50;;;;;;;11.93;4.10;;;;;;;20.09;57.56;100935.81;5010015;28;20424;-62
2023/05/27 01:02:15;;;;;;;14.30;3.93;;;;;;;20.08;57.42;100931.28;5012624;28;20727;-62
2023/05/27 01:04:42;;;;;;;12.47;4.10;;;;;;;20.09;57.77;100938.66;5028786;28;20512;-62
2023/05/27 01:07:10;;;;;;;11.70;4.53;;;;;;;20.09;57.60;100934.97;5028458;28;20203;-63
2023/05/27 01:09:49;;;;;;;8.00;3.70;;;;;;;20.09;57.45;100932.09;5026463;28;20470;-63
2023/05/27 01:12:19;;;;;;;9.50;3.67;;;;;;;20.10;57.70;100936.63;5011623;28;20404;-62
2023/05/27 01:14:45;;;;;;;8.87;3.97;;;;;;;20.08;57.21;100928.41;5028330;28;20479;-63
2023/05/27 01:17:10;;;;;;;15.47;4.67;;;;;;;20.07;56.84;100926.72;5024955;28;20439;-62
2023/05/27 01:19:44;;;;;;;12.17;4.47;;;;;;;20.08;57.18;100930.44;4992753;28;20515;-62
2023/05/27 01:22:11;;;;;;;10.70;4.30;;;;;;;20.07;57.35;100920.16;5009256;28;20605;-62
2023/05/27 01:24:37;;;;;;;9.87;4.00;;;;;;;20.07;56.79;100925.88;5008252;28;20420;-63
2023/05/27 01:27:03;;;;;;;10.00;4.27;;;;;;;20.06;57.26;100930.78;5019817;28;20474;-62
2023/05/27 01:29:29;;;;;;;9.10;4.17;;;;;;;20.06;57.17;100922.19;5028975;28;20670;-62
2023/05/27 01:32:10;;;;;;;13.03;4.80;;;;;;;20.06;57.31;100921.38;5024550;28;20205;-62
2023/05/27 01:34:40;;;;;;;13.37;4.50;;;;;;;20.06;57.05;100919.31;5029347;28;20447;-62
2023/05/27 01:37:07;;;;;;;8.23;3.53;;;;;;;20.05;57.17;100909.06;5010447;28;20509;-62
2023/05/27 01:39:33;;;;;;;11.37;3.47;;;;;;;20.05;57.02;100913.94;5007109;28;21034;-63
2023/05/27 01:42:00;;;;;;;9.17;3.50;;;;;;;20.05;56.88;100909.06;5014873;28;20427;-62
2023/05/27 01:44:25;;;;;;;10.30;4.30;;;;;;;20.05;57.03;100906.19;5029173;28;20176;-62
2023/05/27 01:46:51;;;;;;;10.53;4.27;;;;;;;20.04;56.78;100901.66;5023297;28;20474;-62
2023/05/27 01:49:16;;;;;;;8.37;3.80;;;;;;;20.05;56.93;100906.19;5027019;28;20180;-62
2023/05/27 01:51:42;;;;;;;10.63;3.87;;;;;;;20.04;57.02;100898.81;5028664;28;20164;-62
2023/05/27 01:54:07;;;;;;;12.00;4.93;;;;;;;20.05;56.86;100899.63;5014593;28;20197;-63
2023/05/27 01:56:33;;;;;;;5.60;2.77;;;;;;;20.03;56.84;100900.03;5007036;28;20184;-62
2023/05/27 01:58:58;;;;;;;5.80;3.40;;;;;;;20.03;56.77;100894.28;4991564;28;20161;-62
2023/05/27 02:01:23;;;;;;;7.73;3.67;;;;;;;20.03;56.51;100887.72;4990898;28;20196;-63
2023/05/27 02:03:49;;;;;;;9.60;3.70;;;;;;;20.02;56.29;100891.78;5010969;28;20193;-63
2023/05/27 02:06:14;;;;;;;9.37;3.97;;;;;;;20.02;56.77;100889.72;5026947;28;20200;-63
2023/05/27 02:08:40;;;;;;;13.83;4.30;;;;;;;20.02;56.52;100892.59;5028353;28;20199;-62
2023/05/27 02:11:05;;;;;;;8.20;3.53;;;;;;;20.02;56.71;100889.72;5025913;28;20580;-63
2023/05/27 02:13:31;;;;;;;8.37;3.40;;;;;;;20.02;56.52;100888.94;5010425;28;20660;-62
2023/05/27 02:15:56;;;;;;;9.37;4.23;;;;;;;20.01;56.06;100876.63;5007361;28;20157;-62
2023/05/27 02:18:21;;;;;;;11.47;5.23;;;;;;;20.01;55.91;100878.66;5020539;28;20184;-62
2023/05/27 02:20:47;;;;;;;7.80;3.57;;;;;;;20.00;55.79;100885.59;5026153;28;20180;-63
2023/05/27 02:23:12;;;;;;;7.23;3.50;;;;;;;20.00;55.68;100886.44;5023787;28;20188;-62
2023/05/27 02:25:38;;;;;;;8.60;3.03;;;;;;;20.00;56.61;100880.69;5024018;28;20200;-63
2023/05/27 02:28:03;;;;;;;11.20;4.13;;;;;;;20.01;56.58;100882.34;5009695;28;20203;-62
2023/05/27 02:30:30;;;;;;;7.20;3.60;;;;;;;20.00;56.58;100874.13;5017318;28;20189;-62
2023/05/27 02:32:56;;;;;;;12.67;3.60;;;;;;;19.99;55.87;100876.19;5014824;28;20200;-62
2023/05/27 02:35:21;;;;;;;11.37;4.00;;;;;;;20.00;56.31;100874.13;5012463;28;20416;-62
2023/05/27 02:37:47;;;;;;;8.57;3.53;;;;;;;19.99;56.36;100878.19;5023554;28;20188;-62
2023/05/27 02:40:29;;;;;;;11.00;3.70;;;;;;;19.99;55.89;100875.34;5008163;28;20168;-63
2023/05/27 02:42:58;;;;;;;11.10;4.67;;;;;;;19.99;55.70;100867.59;5017258;28;20172;-62
2023/05/27 02:45:23;;;;;;;12.77;3.50;;;;;;;19.98;55.74;100871.66;5023903;28;20560;-62
2023/05/27 02:47:49;;;;;;;10.13;3.50;;;;;;;19.97;55.60;100863.44;5026188;28;20415;-63
2023/05/27 02:50:14;;;;;;;9.30;3.70;;;;;;;19.97;55.52;100863.44;5019568;28;20645;-62
2023/05/27 02:52:40;;;;;;;9.83;3.80;;;;;;;19.98;55.94;100867.94;5007881;28;20169;-62
2023/05/27 02:55:07;;;;;;;8.43;3.83;;;;;;;19.98;55.70;100867.94;5006552;28;20165;-62
2023/05/27 02:57:32;;;;;;;9.30;3.93;;;;;;;19.97;55.95;100872.84;5026661;28;20258;-62
2023/05/27 02:59:58;;;;;;;9.70;3.90;;;;;;;19.98;55.83;100870.81;5043067;28;20423;-62
2023/05/27 03:02:23;;;;;;;7.73;4.00;;;;;;;19.96;55.84;100856.84;5027917;28;20161;-62
2023/05/27 03:04:48;;;;;;;10.87;3.60;;;;;;;19.97;55.78;100864.25;5025191;28;20808;-63
2023/05/27 03:07:14;;;;;;;8.97;4.20;;;;;;;19.96;55.82;100862.59;5027537;28;20582;-62
2023/05/27 03:09:40;;;;;;;10.20;3.60;;;;;;;19.95;55.67;100858.06;5025212;28;20580;-62
2023/05/27 03:12:05;;;;;;;9.30;3.70;;;;;;;19.95;55.42;100868.69;5010908;28;20172;-62
2023/05/27 03:14:31;;;;;;;11.97;4.27;;;;;;;19.94;55.18;100865.00;5018341;28;20173;-62
2023/05/27 03:16:57;;;;;;;9.63;3.47;;;;;;;19.96;55.63;100873.25;5027005;28;20156;-62
2023/05/27 03:19:22;;;;;;;6.23;2.80;;;;;;;19.96;55.81;100878.97;5024164;28;20184;-63
2023/05/27 03:21:48;;;;;;;10.20;3.80;;;;;;;19.95;55.51;100878.13;5027834;28;20165;-62
2023/05/27 03:24:13;;;;;;;12.30;3.90;;;;;;;19.94;54.97;100876.47;5026093;28;20181;-62
2023/05/27 03:26:39;;;;;;;11.47;4.37;;;;;;;19.94;55.15;100885.06;5009427;28;20212;-62
2023/05/27 03:29:05;;;;;;;9.37;3.63;;;;;;;19.93;54.91;100880.56;5010321;28;20181;-62
2023/05/27 03:31:30;;;;;;;11.27;3.20;;;;;;;19.93;55.49;100877.69;5012282;28;20189;-62
2023/05/27 03:33:56;;;;;;;8.40;3.60;;;;;;;19.93;55.17;100880.56;5011644;28;20165;-63
2023/05/27 03:36:21;;;;;;;7.47;3.20;;;;;;;19.93;55.66;100888.31;5011344;28;20154;-62
2023/05/27 03:38:47;;;;;;;10.30;4.20;;;;;;;19.93;55.14;100885.44;5026756;28;20179;-62
2023/05/27 03:41:12;;;;;;;7.73;2.93;;;;;;;19.93;55.40;100885.44;5030099;28;20176;-62
2023/05/27 03:43:38;;;;;;;7.90;3.90;;;;;;;19.92;55.52;100884.59;5028603;28;20160;-63
2023/05/27 03:46:03;;;;;;;8.60;3.33;;;;;;;19.92;55.02;100883.78;5022929;28;20216;-62
2023/05/27 03:48:28;;;;;;;13.47;4.10;;;;;;;19.92;54.94;100889.53;5027762;28;20176;-62
2023/05/27 03:50:54;;;;;;;8.77;3.50;;;;;;;19.91;55.13;100888.69;5027752;28;20184;-63
2023/05/27 03:53:20;;;;;;;11.77;4.03;;;;;;;19.91;55.17;100885.81;5026757;28;20566;-63
2023/05/27 03:55:45;;;;;;;14.90;4.20;;;;;;;19.91;55.23;100887.88;5030938;28;20183;-63
2023/05/27 03:58:13;;;;;;;12.33;4.10;;;;;;;19.91;55.00;100882.94;5024414;28;20188;-63
2023/05/27 04:00:39;;;;;;;7.83;3.03;;;;;;;19.91;55.09;100887.88;5011552;28;20641;-63
2023/05/27 04:03:05;;;;;;;10.23;4.10;;;;;;;19.90;54.91;100887.03;5010910;28;20428;-63
2023/05/27 04:05:30;;;;;;;7.90;3.40;;;;;;;19.90;54.82;100887.03;5024583;28;20462;-63
2023/05/27 04:07:56;;;;;;;10.20;4.00;;;;;;;19.89;54.27;100890.25;5027817;28;20180;-63
2023/05/27 04:10:21;;;;;;;10.53;3.87;;;;;;;19.88;54.39;100883.72;5029137;28;20235;-63
2023/05/27 04:12:47;;;;;;;9.00;3.67;;;;;;;19.89;54.61;100887.41;5025437;28;20228;-63
2023/05/27 04:15:12;;;;;;;9.93;3.90;;;;;;;19.89;55.22;100879.66;5029558;28;20157;-63
2023/05/27 04:17:38;;;;;;;10.23;3.60;;;;;;;19.89;55.05;100881.66;5028221;28;20708;-63
2023/05/27 04:20:13;;;;;;;12.60;4.43;;;;;;;19.89;54.31;100888.25;5026486;28;20629;-63
2023/05/27 04:22:39;;;;;;;10.43;3.60;;;;;;;19.88;54.36;100883.72;5009544;28;20184;-63
2023/05/27 04:25:05;;;;;;;8.67;3.53;;;;;;;19.87;54.35;100884.91;5011495;28;20518;-63
2023/05/27 04:27:31;;;;;;;10.20;4.10;;;;;;;19.88;54.65;100889.44;5010757;28;20424;-63
2023/05/27 04:29:56;;;;;;;8.77;3.60;;;;;;;19.88;54.84;100883.72;5011911;28;20486;-63
2023/05/27 04:32:23;;;;;;;8.47;3.33;;;;;;;19.90;55.11;100889.06;5010427;28;20578;-63
2023/05/27 04:34:49;;;;;;;8.10;3.03;;;;;;;19.90;55.27;100884.16;5024819;28;20188;-63
2023/05/27 04:37:16;;;;;;;9.37;3.40;;;;;;;19.91;55.18;100882.13;5027401;28;20458;-63
2023/05/27 04:39:45;;;;;;;10.67;3.40;;;;;;;19.91;54.62;100882.13;5028109;28;20165;-63
2023/05/27 04:42:12;;;;;;;9.07;3.53;;;;;;;19.91;54.69;100885.81;5027902;28;20450;-63
2023/05/27 04:44:38;;;;;;;8.57;4.10;;;;;;;19.91;54.63;100882.94;5022221;28;20487;-63
2023/05/27 04:47:04;;;;;;;12.17;3.90;;;;;;;19.91;54.77;100891.56;5008862;28;20447;-63
2023/05/27 04:49:30;;;;;;;10.70;3.60;;;;;;;19.91;54.61;100885.00;5012102;28;20849;-63
2023/05/27 04:51:55;;;;;;;11.80;4.17;;;;;;;19.91;54.77;100885.81;5010324;28;20424;-63
2023/05/27 04:54:21;;;;;;;8.10;3.70;;;;;;;19.91;54.69;100888.69;5012326;28;20247;-63
2023/05/27 04:56:46;;;;;;;10.40;4.43;;;;;;;19.92;54.78;100890.34;5009859;28;20165;-63
2023/05/27 04:59:16;;;;;;;19.07;4.13;;;;;;;19.90;55.39;100878.44;5009578;28;20162;-63
2023/05/27 05:02:09;;;;;;;9.00;3.50;;;;;;;19.90;54.41;100887.03;5029436;28;20267;-63
2023/05/27 05:04:34;;;;;;;10.67;3.40;;;;;;;19.89;55.01;100887.41;5029352;28;20947;-63
2023/05/27 05:06:59;;;;;;;10.13;3.60;;;;;;;19.87;55.16;100884.91;5015538;28;20475;-63
2023/05/27 05:09:25;;;;;;;7.40;3.47;;;;;;;19.88;55.41;100882.88;5009506;28;20200;-63
2023/05/27 05:11:51;;;;;;;11.17;4.30;;;;;;;19.87;54.48;100884.91;5010396;28;20296;-63
2023/05/27 05:14:16;;;;;;;11.60;3.93;;;;;;;19.88;55.71;100888.59;5015580;28;20219;-63
2023/05/27 05:16:41;;;;;;;9.80;3.43;;;;;;;19.87;55.96;100890.63;5029082;28;20189;-63
2023/05/27 05:19:07;;;;;;;9.83;3.40;;;;;;;19.87;55.85;100893.50;5028757;28;20165;-63
2023/05/27 05:21:32;;;;;;;9.07;4.00;;;;;;;19.87;55.34;100887.78;5025235;28;20204;-64
2023/05/27 05:23:58;;;;;;;10.33;3.63;;;;;;;19.87;55.28;100896.38;5029273;28;20180;-63
2023/05/27 05:26:23;;;;;;;13.43;3.43;;;;;;;19.87;55.89;100892.69;5028868;28;20208;-63
2023/05/27 05:28:48;;;;;;;10.57;3.13;;;;;;;19.87;55.76;100895.56;5027138;28;20188;-63
2023/05/27 05:31:14;;;;;;;10.10;3.97;;;;;;;19.85;55.93;100890.19;5009423;28;20194;-64
2023/05/27 05:33:40;;;;;;;10.57;3.30;;;;;;;19.90;55.86;100891.91;5009123;28;20161;-64
2023/05/27 05:36:06;;;;;;;6.13;2.87;;;;;;;19.90;55.82;100895.63;5012696;28;20189;-63
2023/05/27 05:38:31;;;;;;;7.73;3.00;;;;;;;19.89;55.65;100896.00;5009013;28;20173;-64
2023/05/27 05:40:56;;;;;;;16.33;4.27;;;;;;;19.88;55.72;100889.44;5011906;28;20547;-63
2023/05/27 05:43:22;;;;;;;7.50;3.23;;;;;;;19.88;56.08;100898.06;5027291;28;20230;-63
2023/05/27 05:45:47;;;;;;;12.90;3.77;;;;;;;19.88;55.50;100894.34;5027551;28;20195;-63
2023/05/27 05:48:13;;;;;;;13.37;3.90;;;;;;;19.88;55.98;100894.34;5012966;28;20220;-63
2023/05/27 05:50:38;;;;;;;16.07;4.27;;;;;;;19.88;55.41;100892.31;5008315;28;20641;-63
2023/05/27 05:53:04;;;;;;;10.20;3.73;;;;;;;19.88;56.01;100898.06;5007169;28;20191;-63
2023/05/27 05:55:29;;;;;;;12.03;4.60;;;;;;;19.87;55.84;100893.50;5013887;28;20199;-63
2023/05/27 05:57:55;;;;;;;8.27;3.00;;;;;;;19.86;56.04;100894.72;5028778;28;20183;-63
2023/05/27 06:00:20;;;;;;;12.80;3.63;;;;;;;19.86;56.52;100897.56;5026747;28;20191;-64
2023/05/27 06:02:45;;;;;;;9.83;4.27;;;;;;;19.86;56.09;100891.84;5010984;28;20184;-63
2023/05/27 06:05:11;;;;;;;13.23;4.00;;;;;;;19.85;55.54;100895.94;5028312;28;20662;-63
2023/05/27 06:07:36;;;;;;;9.50;3.87;;;;;;;19.88;55.78;100900.06;5017174;28;20184;-63
2023/05/27 06:10:02;;;;;;;10.37;3.87;;;;;;;19.89;55.69;100898.88;5028416;28;20243;-63
2023/05/27 06:12:27;;;;;;;10.63;3.47;;;;;;;19.88;55.91;100898.06;5026106;28;20203;-63
2023/05/27 06:14:53;;;;;;;10.67;4.10;;;;;;;19.89;56.31;100896.84;5009834;28;20189;-63
2023/05/27 06:17:18;;;;;;;11.07;3.50;;;;;;;19.89;55.62;100899.72;5008767;28;20188;-63
2023/05/27 06:19:44;;;;;;;9.70;3.83;;;;;;;19.89;55.68;100901.72;5010677;28;20193;-63
2023/05/27 06:22:09;;;;;;;13.77;4.40;;;;;;;19.88;55.94;100912.38;5008872;28;20174;-63
2023/05/27 06:24:35;;;;;;;10.17;3.57;;;;;;;19.88;56.09;100900.06;5008667;28;20161;-63
2023/05/27 06:27:01;;;;;;;7.27;3.50;;;;;;;19.88;55.95;100900.06;5020445;28;20200;-64
2023/05/27 06:29:27;;;;;;;9.80;3.60;;;;;;;19.86;55.13;100909.03;5024176;28;20234;-63
2023/05/27 06:31:52;;;;;;;10.13;3.73;;;;;;;19.86;55.77;100900.44;5026618;28;20416;-63
2023/05/27 06:34:18;;;;;;;8.33;2.97;;;;;;;19.87;55.47;100896.38;5023035;28;20192;-63
2023/05/27 06:36:43;;;;;;;11.00;3.60;;;;;;;19.87;56.12;100899.22;5010827;28;20177;-62
2023/05/27 06:39:09;;;;;;;10.70;3.97;;;;;;;19.85;55.50;100895.94;5008641;28;20172;-62
2023/05/27 06:41:34;;;;;;;11.00;4.00;;;;;;;19.84;56.18;100888.53;5022617;28;20648;-62
2023/05/27 06:44:00;;;;;;;10.50;3.20;;;;;;;19.83;55.35;100889.75;5026917;28;20594;-62
2023/05/27 06:46:26;;;;;;;12.17;3.20;;;;;;;19.87;55.58;100907.00;5015512;28;20208;-62
2023/05/27 06:48:51;;;;;;;9.60;3.20;;;;;;;19.86;55.11;100897.56;5007295;28;20193;-62
2023/05/27 06:51:16;;;;;;;9.40;3.30;;;;;;;19.87;55.85;100898.41;5026752;28;20230;-62
2023/05/27 06:53:42;;;;;;;12.47;3.50;;;;;;;19.88;55.92;100911.53;5025701;28;20176;-62
2023/05/27 06:56:07;;;;;;;14.03;3.67;;;;;;;19.88;55.59;100897.22;5023376;28;20184;-62
2023/05/27 06:58:33;;;;;;;9.90;3.23;;;;;;;19.88;55.23;100906.66;5026319;28;20176;-62
2023/05/27 07:00:58;;;;;;;6.40;3.30;;;;;;;19.88;55.46;100908.66;5021924;28;20185;-63
2023/05/27 07:03:24;;;;;;;12.53;3.43;;;;;;;19.87;55.22;100898.41;5009269;28;20189;-62
2023/05/27 07:05:49;;;;;;;9.47;3.70;;;;;;;19.86;55.16;100903.31;5026692;28;20208;-62
2023/05/27 07:08:15;;;;;;;13.07;3.70;;;;;;;19.85;55.55;100907.38;5015801;28;20217;-62
2023/05/27 07:10:40;;;;;;;10.57;3.97;;;;;;;19.85;55.16;100910.25;5011387;28;20583;-62
2023/05/27 07:13:06;;;;;;;12.63;4.67;;;;;;;19.84;54.70;100910.63;5011920;28;20185;-62
2023/05/27 07:15:31;;;;;;;14.33;4.33;;;;;;;19.85;55.47;100915.13;5010977;28;20181;-62
2023/05/27 07:17:57;;;;;;;10.63;3.70;;;;;;;19.84;55.09;100905.72;5023169;28;20189;-62
2023/05/27 07:20:22;;;;;;;9.40;2.97;;;;;;;19.85;55.38;100910.25;5011643;28;20181;-62
2023/05/27 07:22:48;;;;;;;10.37;4.10;;;;;;;19.85;55.33;100918.84;5017120;28;20351;-62
2023/05/27 07:25:13;;;;;;;13.00;4.37;;;;;;;19.86;55.14;100911.91;5013280;28;20435;-62
2023/05/27 07:27:39;;;;;;;11.43;3.60;;;;;;;19.86;55.03;100911.91;5031167;28;20279;-63
2023/05/27 07:30:05;;;;;;;9.80;3.70;;;;;;;19.86;54.98;100917.63;5018893;28;20188;-62
2023/05/27 07:32:31;;;;;;;11.53;3.73;;;;;;;19.87;55.08;100909.88;5013574;28;20588;-63
2023/05/27 07:34:56;;;;;;;16.70;4.07;;;;;;;19.86;54.99;100914.78;5024127;28;20439;-62
2023/05/27 07:37:23;;;;;;;11.73;4.40;;;;;;;19.86;54.79;100909.03;5022620;28;20251;-62
2023/05/27 07:39:50;;;;;;;16.60;3.67;;;;;;;19.87;55.02;100902.09;5009778;28;20161;-62
2023/05/27 07:42:16;;;;;;;11.60;4.60;;;;;;;19.85;54.77;100901.66;5014558;28;20934;-63
2023/05/27 07:44:42;;;;;;;10.27;3.60;;;;;;;19.86;55.06;100897.56;5028640;28;20430;-62
2023/05/27 07:47:07;;;;;;;10.80;3.27;;;;;;;19.87;54.69;100899.22;5028048;28;20215;-63
2023/05/27 07:49:32;;;;;;;9.23;3.47;;;;;;;19.87;54.84;100892.69;5023938;28;20274;-63
2023/05/27 07:51:58;;;;;;;9.97;3.70;;;;;;;19.86;54.69;100891.84;5010346;28;20645;-62
2023/05/27 07:54:23;;;;;;;10.43;3.40;;;;;;;19.88;54.63;100883.72;5010803;28;20633;-62
2023/05/27 07:56:49;;;;;;;8.83;3.23;;;;;;;19.87;54.60;100884.91;4995849;28;20189;-63
2023/05/27 07:59:14;;;;;;;8.40;3.93;;;;;;;19.88;54.57;100889.44;5011173;28;20157;-63
2023/05/27 08:01:40;;;;;;;13.23;3.97;;;;;;;19.87;54.75;100892.69;5013054;28;20255;-62
2023/05/27 08:04:05;;;;;;;14.33;3.97;;;;;;;19.87;54.74;100893.50;5012432;28;20181;-62
2023/05/27 08:06:31;;;;;;;11.33;3.80;;;;;;;19.88;54.78;100885.75;5018537;28;20214;-62
2023/05/27 08:08:56;;;;;;;11.33;4.00;;;;;;;19.87;54.68;100878.38;5025209;28;20575;-63
2023/05/27 08:11:23;;;;;;;19.70;3.63;;;;;;;19.87;54.74;100879.16;5011093;28;20592;-62
2023/05/27 08:13:48;;;;;;;8.90;3.50;;;;;;;19.88;54.68;100888.59;5018952;28;20436;-62
2023/05/27 08:16:14;;;;;;;13.07;3.53;;;;;;;19.87;54.85;100887.78;5011439;28;20189;-63
2023/05/27 08:18:39;;;;;;;8.03;3.30;;;;;;;19.88;54.76;100880.84;5009668;28;20204;-62
2023/05/27 08:21:05;;;;;;;10.53;4.10;;;;;;;19.88;54.73;100874.28;5011087;28;20189;-62
2023/05/27 08:23:30;;;;;;;10.07;3.60;;;;;;;19.87;54.75;100870.56;5010964;28;20185;-62
2023/05/27 08:25:56;;;;;;;7.97;3.50;;;;;;;19.87;54.77;100859.13;5020192;28;20979;-63
2023/05/27 08:28:21;;;;;;;9.57;3.50;;;;;;;19.88;54.75;100860.78;5014022;28;20601;-62
2023/05/27 08:30:47;;;;;;;13.87;3.70;;;;;;;19.88;54.59;100860.78;5025787;28;20739;-63
2023/05/27 08:33:12;;;;;;;11.23;3.90;;;;;;;19.88;54.70;100866.53;5009729;28;20562;-62
2023/05/27 08:35:38;;;;;;;13.20;3.97;;;;;;;19.88;54.56;100863.66;5022147;28;20176;-63
2023/05/27 08:38:03;;;;;;;13.77;4.00;;;;;;;19.88;54.76;100855.06;5015874;28;20181;-62
2023/05/27 08:40:29;;;;;;;11.13;3.40;;;;;;;19.89;54.55;100858.75;5021657;28;20173;-62
2023/05/27 08:42:55;;;;;;;14.80;3.63;;;;;;;19.89;54.77;100862.44;5017987;28;20177;-63
2023/05/27 08:45:22;;;;;;;13.00;4.10;;;;;;;19.89;54.52;100855.88;5024033;28;20181;-62
2023/05/27 08:47:48;;;;;;;12.73;4.10;;;;;;;19.88;54.84;100852.19;5024691;28;20219;-62
2023/05/27 08:50:14;;;;;;;11.37;3.80;;;;;;;19.88;54.45;100846.47;5027980;28;21046;-62
2023/05/27 08:52:52;;;;;;;10.90;3.83;;;;;;;19.89;54.59;100839.53;5018573;28;20479;-62
2023/05/27 08:55:20;;;;;;;9.60;3.60;;;;;;;19.91;54.34;100842.03;5017713;28;20188;-62
2023/05/27 08:57:49;;;;;;;11.33;4.23;;;;;;;19.91;54.43;100854.28;5016212;28;20434;-62
2023/05/27 09:00:15;;;;;;;7.50;3.60;;;;;;;19.91;54.19;100839.97;5005698;28;20610;-62
2023/05/27 09:02:40;;;;;;;14.53;4.47;;;;;;;19.92;53.96;100841.63;5014439;28;20510;-62
2023/05/27 09:05:07;;;;;;;8.27;3.57;;;;;;;19.91;54.42;100834.22;5013189;28;20193;-62
2023/05/27 09:07:33;;;;;;;12.73;4.17;;;;;;;19.92;54.40;100832.22;5041874;28;20196;-62
2023/05/27 09:09:59;;;;;;;14.00;3.83;;;;;;;19.93;54.10;100831.00;5036309;28;20478;-62
2023/05/27 09:12:27;;;;;;;12.70;3.47;;;;;;;19.93;53.73;100831.00;5008879;28;20660;-62
2023/05/27 09:14:53;;;;;;;14.20;3.80;;;;;;;19.92;53.68;100826.47;5012561;28;20216;-62
2023/05/27 09:17:19;;;;;;;11.13;4.40;;;;;;;19.94;53.80;100829.78;5027348;28;20432;-62
2023/05/27 09:19:46;;;;;;;14.27;5.20;;;;;;;19.95;53.52;100834.31;5018307;28;20977;-62
2023/05/27 09:22:21;;;;;;;14.97;3.70;;;;;;;19.94;53.85;100827.75;5023810;28;20554;-62
2023/05/27 09:24:47;;;;;;;14.17;4.37;;;;;;;19.96;53.57;100836.00;5010682;28;20450;-62
2023/05/27 09:27:13;;;;;;;15.87;4.60;;;;;;;19.96;53.63;100836.78;5007821;28;20471;-62
2023/05/27 09:29:40;;;;;;;13.60;4.60;;;;;;;19.96;53.90;100828.19;5016257;28;20239;-61
2023/05/27 09:32:07;;;;;;;11.80;4.27;;;;;;;19.97;54.03;100818.38;5011150;28;20808;-61
2023/05/27 09:34:38;;;;;;;9.60;4.03;;;;;;;19.98;54.14;100824.97;5012045;28;20435;-61
2023/05/27 09:37:04;;;;;;;10.40;4.43;;;;;;;19.99;53.73;100823.75;5032667;28;20427;-61
2023/05/27 09:39:29;;;;;;;10.63;4.43;;;;;;;19.99;53.91;100823.75;5014851;28;20420;-61
2023/05/27 09:41:55;;;;;;;15.80;4.70;;;;;;;19.99;54.04;100823.75;5010904;28;20455;-61
2023/05/27 09:44:23;;;;;;;9.47;4.03;;;;;;;19.99;54.24;100816.00;5023554;28;20176;-61
2023/05/27 09:46:48;;;;;;;10.17;3.97;;;;;;;20.00;53.96;100811.91;4977596;28;20454;-61
2023/05/27 09:49:14;;;;;;;12.30;4.30;;;;;;;20.02;53.88;100814.41;5021527;28;20432;-61
2023/05/27 09:51:40;;;;;;;11.50;4.43;;;;;;;20.01;53.87;100819.28;5001850;28;20188;-61
2023/05/27 09:54:06;;;;;;;10.97;4.07;;;;;;;20.02;53.67;100831.59;5014078;28;20185;-62
2023/05/27 09:56:31;;;;;;;13.03;4.27;;;;;;;20.02;53.56;100811.53;5014389;28;20489;-62
2023/05/27 09:58:57;;;;;;;13.73;4.33;;;;;;;20.02;53.91;100803.75;5011170;28;20234;-62
2023/05/27 10:01:28;;;;;;;12.73;4.33;;;;;;;20.02;54.03;100803.75;5022747;28;20180;-62
2023/05/27 10:03:53;;;;;;;13.13;3.73;;;;;;;20.03;54.01;100799.69;5017975;28;20181;-62
2023/05/27 10:06:19;;;;;;;12.67;4.67;;;;;;;20.05;54.13;100796.44;5021536;28;20471;-63
2023/05/27 10:08:45;;;;;;;15.70;4.40;;;;;;;20.04;54.11;100794.78;5021833;28;20200;-62
2023/05/27 10:11:11;;;;;;;13.47;4.40;;;;;;;20.04;54.31;100789.03;5019868;28;20263;-63
2023/05/27 10:13:36;;;;;;;12.77;4.63;;;;;;;20.05;54.48;100779.22;5008876;28;20226;-62
2023/05/27 10:16:01;;;;;;;16.97;4.77;;;;;;;20.05;54.20;100785.81;5017457;28;20177;-62
2023/05/27 10:18:30;;;;;;;10.50;3.90;;;;;;;20.05;54.27;100780.06;5010329;28;20336;-62
2023/05/27 10:20:59;;;;;;;9.80;3.90;;;;;;;20.05;54.40;100768.59;5032759;28;20255;-62
2023/05/27 10:23:26;;;;;;;21.60;4.40;;;;;;;20.05;54.54;100768.59;5023393;28;20799;-63
2023/05/27 10:25:55;;;;;;;13.60;4.43;;;;;;;20.07;54.63;100762.50;5023268;28;20478;-62
2023/05/27 10:28:28;;;;;;;14.90;4.50;;;;;;;20.07;54.74;100769.06;5017831;28;20531;-63
2023/05/27 10:31:03;;;;;;;11.00;3.60;;;;;;;20.09;54.80;100766.69;5002730;28;20524;-62
2023/05/27 10:33:34;;;;;;;12.37;4.40;;;;;;;20.10;54.86;100765.47;5021919;28;20429;-62
2023/05/27 10:36:16;;;;;;;10.77;4.23;;;;;;;20.09;54.78;100758.06;5019396;28;20423;-62
2023/05/27 10:38:42;;;;;;;12.47;4.20;;;;;;;20.11;54.77;100755.66;5016854;28;20490;-63
2023/05/27 10:41:08;;;;;;;18.50;4.07;;;;;;;20.11;54.92;100752.78;5007684;28;20420;-62
2023/05/27 10:43:33;;;;;;;9.90;4.20;;;;;;;20.12;54.81;100757.28;5019854;28;20423;-63
2023/05/27 10:46:09;;;;;;;12.43;4.30;;;;;;;20.13;54.96;100755.28;5012593;28;20216;-62
2023/05/27 10:48:35;;;;;;;7.90;3.70;;;;;;;20.11;55.09;100761.38;5007654;28;21144;-62
2023/05/27 10:51:01;;;;;;;9.37;4.53;;;;;;;20.11;55.00;100749.91;5011294;28;20436;-62
2023/05/27 10:53:27;;;;;;;10.33;4.33;;;;;;;20.12;55.16;100748.69;5025298;28;20520;-62
2023/05/27 10:55:52;;;;;;;11.47;4.13;;;;;;;20.15;55.24;100755.72;5006197;28;20181;-62
2023/05/27 10:58:18;;;;;;;14.93;4.40;;;;;;;20.13;55.48;100747.50;5011622;28;20465;-62
2023/05/27 11:00:49;;;;;;;13.87;4.20;;;;;;;20.14;55.32;100746.28;5020415;28;20184;-63
2023/05/27 11:03:18;;;;;;;13.03;4.80;;;;;;;20.14;55.44;100749.16;5021191;28;20187;-62
2023/05/27 11:05:43;;;;;;;13.23;4.40;;;;;;;20.15;55.53;100745.09;5015170;28;20459;-62
2023/05/27 11:08:12;;;;;;;10.37;4.23;;;;;;;20.15;55.46;100736.47;5006782;28;20431;-62
2023/05/27 11:10:40;;;;;;;12.70;4.10;;;;;;;20.18;55.38;100727.13;5014414;28;20229;-62
2023/05/27 11:13:06;;;;;;;14.00;4.30;;;;;;;20.19;55.60;100734.50;5018220;28;21033;-62
2023/05/27 11:15:31;;;;;;;9.40;4.57;;;;;;;20.18;55.41;100727.13;5017504;28;20435;-62